Soldier Pond, Maine
Current Conditions -  °F | °C
As of 2:53 AM on Friday 24 Oct 2014 (Local Time) from KFVE Reporting Station
Overcast Overcast  
Wind Chill: 35°   Ceiling: 5500
Heat Index: 42°   Visibility: 10mi
Dew Point: 31°   Wind: 13mph
Humidity: 65%   Direction: 30°NNE
Pressure: 29.87"   Gusts: 22mph
Location:  47.16°N, 68.57°W
Report Text: KFVE 240653Z AUTO 03011G19KT 10SM OVC055 06/M01 A2987 RMK AO2 RAB0557E07 SLP120 P0000 T00561006
Loading
Personal Weather Stations






























Interactive Weather Map
Tropical Storm Tracking
New forecast layout! Learn more

10-Day Weather Forecast

Advertisements
Track Severe Weather on mobile